createdAt,value
2023-04-28T00:00:53.990Z,50.16
2023-04-28T00:03:21.813Z,48.99
2023-04-28T00:05:49.701Z,48.05
2023-04-28T00:08:18.971Z,48.89
2023-04-28T00:10:46.863Z,49.95
2023-04-28T00:13:14.516Z,48.88
2023-04-28T00:15:42.161Z,50.02
2023-04-28T00:18:09.880Z,48.18
2023-04-28T00:20:37.536Z,48.93
2023-04-28T00:23:05.351Z,49.95
2023-04-28T00:25:34.434Z,50.84
2023-04-28T00:28:02.945Z,50.03
2023-04-28T00:30:31.237Z,50.31
2023-04-28T00:32:58.974Z,49.67
2023-04-28T00:35:26.687Z,48.55
2023-04-28T00:37:54.342Z,49.96
2023-04-28T00:40:22.186Z,50.93
2023-04-28T00:42:51.260Z,51.06
2023-04-28T00:45:18.905Z,49.82
2023-04-28T00:48:17.503Z,50.88
2023-04-28T00:50:45.994Z,51.35
2023-04-28T00:53:14.157Z,50.55
2023-04-28T00:55:41.901Z,49.48
2023-04-28T00:58:11.513Z,51.79
2023-04-28T01:00:39.423Z,49.87
2023-04-28T01:03:08.044Z,51.07
2023-04-28T01:05:36.414Z,50.50
2023-04-28T01:08:04.777Z,51.23
2023-04-28T01:10:32.924Z,49.47
2023-04-28T01:13:00.585Z,48.58
2023-04-28T01:15:29.968Z,50.41
2023-04-28T01:17:57.642Z,48.79
2023-04-28T01:20:25.428Z,48.28
2023-04-28T01:22:55.175Z,49.11
2023-04-28T01:25:24.174Z,48.80
2023-04-28T01:27:52.799Z,49.27
2023-04-28T01:30:21.053Z,47.46
2023-04-28T01:32:48.820Z,46.97
2023-04-28T01:35:16.720Z,47.42
2023-04-28T01:37:44.344Z,48.78
2023-04-28T01:40:13.156Z,48.29
2023-04-28T01:42:42.162Z,48.62
2023-04-28T01:45:11.131Z,48.43
2023-04-28T01:47:38.949Z,47.44
2023-04-28T01:55:52.946Z,48.12
2023-04-28T01:58:22.025Z,45.85
2023-04-28T02:00:49.710Z,50.37
2023-04-28T02:03:17.825Z,46.57
2023-04-28T02:05:45.786Z,48.95
2023-04-28T02:08:13.445Z,47.17
2023-04-28T02:10:41.534Z,48.64
2023-04-28T02:13:09.201Z,47.77
2023-04-28T02:15:42.284Z,47.88
2023-04-28T02:18:10.070Z,48.45
2023-04-28T02:20:37.807Z,47.41
2023-04-28T02:23:05.510Z,47.68
2023-04-28T02:25:33.181Z,46.80
2023-04-28T02:28:00.856Z,46.94
2023-04-28T02:30:28.510Z,47.68
2023-04-28T02:32:57.677Z,49.39
2023-04-28T02:35:25.413Z,45.99
2023-04-28T02:37:53.612Z,48.55
2023-04-28T02:40:21.424Z,47.02
2023-04-28T02:42:49.101Z,48.87
2023-04-28T02:45:16.810Z,47.87
2023-04-28T02:47:44.521Z,47.54
2023-04-28T02:50:13.657Z,48.69
2023-04-28T02:52:41.313Z,48.33
2023-04-28T02:55:09.788Z,47.44
2023-04-28T02:57:37.481Z,48.46
2023-04-28T03:00:06.543Z,47.87
2023-04-28T03:02:34.391Z,47.79
2023-04-28T03:05:02.326Z,48.38
2023-04-28T03:07:31.494Z,48.25
2023-04-28T03:09:59.162Z,49.04
2023-04-28T03:12:26.858Z,46.47
2023-04-28T03:14:54.622Z,47.67
2023-04-28T03:17:22.325Z,46.13
2023-04-28T03:19:50.024Z,47.04
2023-04-28T03:22:17.697Z,46.97
2023-04-28T03:24:47.023Z,47.38
2023-04-28T03:27:14.706Z,47.64
2023-04-28T03:29:42.383Z,48.15
2023-04-28T03:32:10.423Z,49.64
2023-04-28T03:34:38.356Z,48.70
2023-04-28T03:37:06.387Z,49.88
2023-04-28T03:39:34.089Z,51.13
2023-04-28T03:42:03.265Z,54.69
2023-04-28T03:44:31.418Z,55.17
2023-04-28T03:46:59.162Z,54.95
2023-04-28T03:49:26.971Z,54.60
2023-04-28T03:51:54.657Z,54.29
2023-04-28T03:54:22.367Z,54.49
2023-04-28T03:56:50.133Z,52.79
2023-04-28T03:59:19.221Z,57.91
2023-04-28T04:01:46.919Z,54.18
2023-04-28T04:04:14.956Z,52.96
2023-04-28T04:06:42.889Z,56.45
2023-04-28T04:09:10.571Z,54.99
2023-04-28T04:11:38.315Z,56.25
2023-04-28T04:14:06.293Z,53.22
2023-04-28T04:16:35.374Z,55.60
2023-04-28T04:19:03.087Z,56.31
2023-04-28T04:21:31.782Z,55.80
2023-04-28T04:23:59.509Z,57.86
2023-04-28T04:26:27.191Z,55.25
2023-04-28T04:28:54.848Z,54.14
2023-04-28T04:31:22.844Z,54.13
2023-04-28T04:33:52.024Z,57.89
2023-04-28T04:36:19.778Z,55.42
2023-04-28T04:38:47.436Z,56.79
2023-04-28T04:41:15.217Z,57.62
2023-04-28T04:43:42.899Z,56.26
2023-04-28T04:46:10.735Z,54.55
2023-04-28T04:48:38.495Z,53.78
2023-04-28T04:51:07.584Z,55.08
2023-04-28T04:53:35.273Z,56.94
2023-04-28T04:56:03.058Z,56.87
2023-04-28T04:58:30.833Z,57.25
2023-04-28T05:00:58.536Z,55.85
2023-04-28T05:03:26.294Z,54.83
2023-04-28T05:05:54.186Z,55.51
2023-04-28T05:08:23.277Z,57.58
2023-04-28T05:10:50.974Z,55.36
2023-04-28T05:13:18.767Z,56.20
2023-04-28T05:15:46.471Z,55.63
2023-04-28T05:18:14.317Z,57.27
2023-04-28T05:20:42.014Z,54.63
2023-04-28T05:23:10.612Z,55.52
2023-04-28T05:25:39.737Z,55.24
2023-04-28T05:28:09.414Z,54.30
2023-04-28T05:30:37.142Z,54.21
2023-04-28T05:33:04.919Z,58.33
2023-04-28T05:35:32.686Z,56.70
2023-04-28T05:38:00.405Z,55.27
2023-04-28T05:40:28.946Z,58.25
2023-04-28T05:42:58.005Z,56.82
2023-04-28T05:45:26.136Z,56.31
2023-04-28T05:47:53.877Z,55.97
2023-04-28T05:50:21.802Z,55.67
2023-04-28T05:52:49.479Z,56.67
2023-04-28T05:55:17.448Z,60.31
2023-04-28T05:57:52.531Z,61.55
2023-04-28T06:00:22.884Z,60.62
2023-04-28T06:02:51.059Z,61.44
2023-04-28T06:05:19.298Z,60.45
2023-04-28T06:07:49.688Z,62.85
2023-04-28T06:10:17.994Z,61.91
2023-04-28T06:12:45.629Z,62.91
2023-04-28T06:15:13.342Z,60.64
2023-04-28T06:17:42.531Z,59.16
2023-04-28T06:20:13.750Z,62.49
2023-04-28T06:22:41.612Z,62.78
2023-04-28T06:25:10.282Z,61.41
2023-04-28T06:27:38.021Z,61.95
2023-04-28T06:30:06.929Z,59.91
2023-04-28T06:32:34.625Z,57.96
2023-04-28T06:35:03.693Z,57.89
2023-04-28T06:37:31.491Z,58.83
2023-04-28T06:39:59.116Z,60.59
2023-04-28T06:42:27.171Z,59.89
2023-04-28T06:44:54.917Z,60.94
2023-04-28T06:47:22.837Z,59.73
2023-04-28T06:49:50.938Z,61.11
2023-04-28T06:52:27.042Z,60.51
2023-04-28T06:54:57.740Z,58.85
2023-04-28T06:57:25.449Z,58.91
2023-04-28T06:59:53.460Z,59.74
2023-04-28T07:02:21.540Z,59.38
2023-04-28T07:04:49.390Z,58.47
2023-04-28T07:07:17.285Z,58.60
2023-04-28T07:09:46.441Z,59.23
2023-04-28T07:12:14.331Z,55.58
2023-04-28T07:14:41.984Z,56.27
2023-04-28T07:17:09.729Z,56.22
2023-04-28T07:19:37.411Z,57.96
2023-04-28T07:22:05.070Z,59.74
2023-04-28T07:24:32.782Z,59.32
2023-04-28T07:27:03.887Z,59.54
2023-04-28T07:29:34.203Z,59.01
2023-04-28T07:32:04.161Z,58.62
2023-04-28T07:34:32.921Z,60.21
2023-04-28T07:37:00.687Z,57.99
2023-04-28T07:39:28.332Z,57.70
2023-04-28T07:41:58.049Z,57.41
2023-04-28T07:44:27.109Z,57.62
2023-04-28T07:46:54.916Z,57.04
2023-04-28T07:49:22.637Z,57.49
2023-04-28T07:51:52.223Z,55.44
2023-04-28T07:54:20.086Z,58.63
2023-04-28T07:56:48.060Z,58.06
2023-04-28T07:59:15.875Z,57.61
2023-04-28T08:01:44.963Z,55.37
2023-04-28T08:04:12.919Z,58.70
2023-04-28T08:06:41.517Z,61.04
2023-04-28T08:09:09.247Z,62.41
2023-04-28T08:11:36.963Z,62.83
2023-04-28T08:14:04.718Z,66.22
2023-04-28T08:16:34.426Z,65.15
2023-04-28T08:19:03.646Z,68.16
2023-04-28T08:21:32.813Z,73.12
2023-04-28T08:24:00.602Z,72.08
2023-04-28T08:26:28.432Z,81.03
2023-04-28T08:28:56.097Z,79.93
2023-04-28T08:31:23.901Z,75.25
2023-04-28T08:33:51.781Z,76.37
2023-04-28T08:36:21.246Z,70.44
2023-04-28T08:38:49.240Z,72.28
2023-04-28T08:41:17.846Z,74.76
2023-04-28T08:43:45.722Z,72.51
2023-04-28T08:46:15.946Z,69.17
2023-04-28T08:48:45.756Z,73.19
2023-04-28T08:51:16.468Z,69.77
2023-04-28T08:56:23.427Z,78.13
2023-04-28T08:58:51.788Z,77.27
2023-04-28T09:01:19.440Z,75.79
2023-04-28T09:03:48.136Z,68.55
2023-04-28T09:06:15.967Z,73.30
2023-04-28T09:08:43.892Z,70.03
2023-04-28T09:11:13.757Z,67.22
2023-04-28T09:13:42.293Z,69.51
2023-04-28T09:16:09.995Z,67.30
2023-04-28T09:18:37.748Z,70.10
2023-04-28T09:21:06.989Z,69.17
2023-04-28T09:23:37.190Z,69.55
2023-04-28T09:26:06.487Z,64.40
2023-04-28T09:28:36.655Z,63.24
2023-04-28T09:31:05.641Z,63.01
2023-04-28T09:33:33.775Z,70.18
2023-04-28T09:36:01.542Z,64.62
2023-04-28T09:41:14.959Z,66.16
2023-04-28T09:43:44.021Z,66.53
2023-04-28T09:46:11.745Z,64.09
2023-04-28T09:48:40.112Z,61.97
2023-04-28T09:51:11.594Z,65.51
2023-04-28T09:53:40.720Z,62.51
2023-04-28T09:56:08.839Z,62.71
2023-04-28T09:58:41.293Z,63.57
2023-04-28T10:01:14.518Z,60.96
2023-04-28T10:03:43.237Z,61.36
2023-04-28T10:06:11.579Z,57.69
2023-04-28T10:08:40.373Z,59.20
2023-04-28T10:11:08.492Z,55.01
2023-04-28T10:13:36.747Z,59.51
2023-04-28T10:16:05.699Z,60.27
2023-04-28T10:18:36.483Z,60.33
2023-04-28T10:21:05.744Z,57.08
2023-04-28T10:23:54.352Z,55.16
2023-04-28T10:26:23.825Z,56.92
2023-04-28T10:28:52.992Z,54.34
2023-04-28T10:31:22.787Z,53.69
2023-04-28T10:33:52.256Z,53.56
2023-04-28T10:36:50.939Z,55.84
2023-04-28T10:39:21.378Z,53.35
2023-04-28T10:41:50.010Z,51.41
2023-04-28T10:44:45.171Z,50.70
2023-04-28T10:47:15.790Z,52.97
2023-04-28T10:50:11.356Z,50.26
2023-04-28T10:52:52.381Z,54.62
2023-04-28T10:55:36.555Z,52.10
2023-04-28T10:58:33.660Z,56.33
2023-04-28T11:01:25.749Z,50.81
2023-04-28T11:04:00.951Z,53.86
2023-04-28T11:06:32.493Z,53.98
2023-04-28T11:09:02.320Z,52.52
2023-04-28T11:11:30.574Z,51.63
2023-04-28T11:14:31.601Z,54.45
2023-04-28T11:17:02.015Z,52.14
2023-04-28T11:19:33.172Z,51.28
2023-04-28T11:22:04.374Z,53.33
2023-04-28T11:24:32.711Z,52.94
2023-04-28T11:27:01.354Z,52.58
2023-04-28T11:29:49.189Z,52.23
2023-04-28T11:32:16.956Z,50.54
2023-04-28T11:34:52.768Z,50.58
2023-04-28T11:37:22.954Z,48.77
2023-04-28T11:39:51.165Z,48.82
2023-04-28T11:42:19.158Z,48.46
2023-04-28T11:44:51.829Z,49.23
2023-04-28T11:50:13.010Z,50.16
2023-04-28T11:52:53.007Z,50.45
2023-04-28T11:55:21.760Z,49.26
2023-04-28T11:57:49.581Z,50.32
2023-04-28T12:03:08.890Z,52.02
2023-04-28T12:05:39.056Z,55.32
2023-04-28T12:08:08.420Z,53.31
2023-04-28T12:10:36.140Z,53.46
2023-04-28T12:13:16.718Z,52.80
2023-04-28T12:15:44.466Z,53.66
2023-04-28T12:18:12.652Z,55.24
2023-04-28T12:20:41.164Z,54.56
2023-04-28T12:23:10.590Z,54.49
2023-04-28T12:25:44.773Z,54.82
2023-04-28T12:28:12.669Z,56.73
2023-04-28T12:30:42.262Z,56.80
2023-04-28T12:33:23.568Z,55.02
2023-04-28T12:35:51.409Z,55.14
2023-04-28T12:38:20.666Z,57.79
2023-04-28T12:40:48.429Z,58.53
2023-04-28T12:43:16.280Z,57.22
2023-04-28T12:45:43.990Z,56.62
2023-04-28T12:48:11.852Z,57.60
2023-04-28T12:50:39.766Z,59.98
2023-04-28T12:53:07.505Z,60.55
2023-04-28T12:55:36.617Z,57.27
2023-04-28T12:58:04.730Z,57.48
2023-04-28T13:00:32.559Z,59.17
2023-04-28T13:03:03.162Z,61.77
2023-04-28T13:05:31.103Z,68.05
2023-04-28T13:07:59.519Z,75.60
2023-04-28T13:10:27.356Z,79.07
2023-04-28T13:12:56.435Z,81.36
2023-04-28T13:15:24.277Z,86.42
2023-04-28T13:17:52.016Z,86.40
2023-04-28T13:20:19.848Z,88.30
2023-04-28T13:22:56.495Z,84.33
2023-04-28T13:25:24.208Z,86.05
2023-04-28T13:27:52.221Z,79.81
2023-04-28T13:30:22.076Z,74.03
2023-04-28T13:32:49.963Z,66.82
2023-04-28T13:35:17.747Z,68.73
2023-04-28T13:37:46.119Z,64.87
2023-04-28T13:40:14.177Z,72.56
2023-04-28T13:42:41.936Z,68.96
2023-04-28T13:45:10.451Z,74.46
2023-04-28T13:47:39.916Z,80.98
2023-04-28T13:50:08.709Z,78.87
2023-04-28T13:52:36.554Z,69.37
2023-04-28T13:55:04.652Z,74.27
2023-04-28T13:57:32.540Z,84.66
2023-04-28T14:00:22.281Z,76.18
2023-04-28T14:02:51.876Z,69.02
2023-04-28T14:05:19.812Z,86.38
2023-04-28T14:07:47.520Z,85.01
2023-04-28T14:10:15.214Z,75.97
2023-04-28T14:12:43.392Z,70.54
2023-04-28T14:15:11.484Z,67.08
2023-04-28T14:17:39.196Z,66.53
2023-04-28T14:20:11.672Z,62.42
2023-04-28T14:22:48.620Z,61.14
2023-04-28T14:25:16.405Z,63.97
2023-04-28T14:27:44.084Z,59.34
2023-04-28T14:30:12.396Z,61.26
2023-04-28T14:32:40.258Z,63.14
2023-04-28T14:35:10.687Z,70.03
2023-04-28T14:38:01.572Z,69.57
2023-04-28T14:40:29.197Z,68.69
2023-04-28T14:42:56.927Z,72.72
2023-04-28T14:45:25.022Z,69.85
2023-04-28T14:47:53.410Z,66.01
2023-04-28T14:50:22.683Z,74.61
2023-04-28T14:52:50.817Z,75.78
2023-04-28T14:55:18.506Z,76.08
2023-04-28T14:57:47.074Z,75.52
2023-04-28T15:00:15.999Z,67.74
2023-04-28T15:02:43.881Z,84.65
2023-04-28T15:05:12.673Z,75.42
2023-04-28T15:07:42.084Z,67.09
2023-04-28T15:10:10.230Z,68.96
2023-04-28T15:12:37.908Z,75.27
2023-04-28T15:15:06.102Z,70.30
2023-04-28T15:17:34.265Z,75.30
2023-04-28T15:20:02.282Z,77.03
2023-04-28T15:22:30.282Z,77.31
2023-04-28T15:24:59.342Z,80.78
2023-04-28T15:27:27.196Z,82.66
2023-04-28T15:29:54.950Z,82.88
2023-04-28T15:32:23.543Z,94.03
2023-04-28T15:34:51.910Z,93.11
2023-04-28T15:37:43.111Z,97.49
2023-04-28T15:40:14.610Z,95.93
2023-04-28T15:42:44.999Z,89.02
2023-04-28T15:45:13.410Z,99.08
2023-04-28T15:47:42.564Z,100.00
2023-04-28T15:50:11.234Z,100.00
2023-04-28T15:55:45.640Z,100.00
2023-04-28T15:58:13.570Z,100.00
2023-04-28T16:00:42.247Z,100.00
2023-04-28T16:03:10.198Z,100.00
2023-04-28T16:05:38.809Z,100.00
2023-04-28T16:08:06.598Z,100.00
2023-04-28T16:10:34.374Z,100.00
2023-04-28T16:13:05.263Z,100.00
2023-04-28T16:15:34.178Z,100.00
2023-04-28T16:18:02.097Z,100.00
2023-04-28T16:20:30.277Z,100.00
2023-04-28T16:22:57.964Z,100.00
2023-04-28T16:25:25.793Z,100.00
2023-04-28T16:27:53.553Z,100.00
2023-04-28T16:30:22.929Z,100.00
2023-04-28T16:32:50.641Z,100.00
2023-04-28T16:35:18.377Z,97.29
2023-04-28T16:37:46.180Z,100.00
2023-04-28T16:40:14.313Z,100.00
2023-04-28T16:42:43.541Z,100.00
2023-04-28T16:45:12.073Z,100.00
2023-04-28T16:47:43.278Z,100.00
2023-04-28T16:50:11.932Z,100.00
2023-04-28T16:52:39.762Z,95.49
2023-04-28T16:55:08.916Z,100.00
2023-04-28T16:57:36.653Z,98.83
2023-04-28T17:00:06.126Z,100.00
2023-04-28T17:02:34.460Z,100.00
2023-04-28T17:05:18.179Z,100.00
2023-04-28T17:07:45.906Z,100.00
2023-04-28T17:10:13.796Z,100.00
2023-04-28T17:12:42.774Z,100.00
2023-04-28T17:15:15.109Z,100.00
2023-04-28T17:17:42.843Z,100.00
2023-04-28T17:20:12.029Z,100.00
2023-04-28T17:22:41.190Z,100.00
2023-04-28T17:25:10.012Z,100.00
2023-04-28T17:27:37.840Z,100.00
2023-04-28T17:30:06.420Z,100.00
2023-04-28T17:32:34.480Z,100.00
2023-04-28T17:35:02.169Z,100.00
2023-04-28T17:37:31.407Z,100.00
2023-04-28T17:40:00.777Z,100.00
2023-04-28T17:42:30.210Z,100.00
2023-04-28T17:44:57.881Z,100.00
2023-04-28T17:47:25.679Z,100.00
2023-04-28T17:49:53.524Z,100.00
2023-04-28T17:52:21.186Z,100.00
2023-04-28T17:54:49.214Z,100.00
2023-04-28T17:57:18.906Z,100.00
2023-04-28T17:59:50.969Z,100.00
2023-04-28T18:02:19.754Z,100.00
2023-04-28T18:04:47.694Z,100.00
2023-04-28T18:07:15.468Z,100.00
2023-04-28T18:09:43.231Z,100.00
2023-04-28T18:12:10.931Z,100.00
2023-04-28T18:14:41.132Z,100.00
2023-04-28T18:17:08.961Z,100.00
2023-04-28T18:19:37.031Z,100.00
2023-04-28T18:22:05.310Z,100.00
2023-04-28T18:24:33.400Z,100.00
2023-04-28T18:27:02.246Z,100.00
2023-04-28T18:29:30.187Z,100.00
2023-04-28T18:31:59.337Z,100.00
2023-04-28T18:34:27.435Z,100.00
2023-04-28T18:36:55.251Z,100.00
2023-04-28T18:39:23.097Z,100.00
2023-04-28T18:41:51.508Z,100.00
2023-04-28T18:44:20.173Z,100.00
2023-04-28T18:46:47.921Z,100.00
2023-04-28T18:49:17.468Z,100.00
2023-04-28T18:51:45.280Z,100.00
2023-04-28T18:54:15.809Z,100.00
2023-04-28T18:56:44.371Z,100.00
2023-04-28T18:59:12.291Z,100.00
2023-04-28T19:01:40.077Z,100.00
2023-04-28T19:04:08.343Z,100.00
2023-04-28T19:06:37.666Z,100.00
2023-04-28T19:09:05.315Z,100.00
2023-04-28T19:11:33.032Z,100.00
2023-04-28T19:14:01.324Z,100.00
2023-04-28T19:16:29.022Z,100.00
2023-04-28T19:18:56.718Z,100.00
2023-04-28T19:21:24.520Z,100.00
2023-04-28T19:23:54.291Z,100.00
2023-04-28T19:26:22.003Z,100.00
2023-04-28T19:28:49.708Z,100.00
2023-04-28T19:31:17.481Z,100.00
2023-04-28T19:33:45.176Z,100.00
2023-04-28T19:36:12.843Z,100.00
2023-04-28T19:38:40.686Z,100.00
2023-04-28T19:41:09.950Z,100.00
2023-04-28T19:43:37.809Z,100.00
2023-04-28T19:46:05.718Z,100.00
2023-04-28T19:48:33.414Z,100.00
2023-04-28T19:51:01.107Z,100.00
2023-04-28T19:53:28.893Z,100.00
2023-04-28T19:55:57.641Z,100.00
2023-04-28T19:58:26.769Z,100.00
2023-04-28T20:00:54.690Z,100.00
2023-04-28T20:03:22.608Z,100.00
2023-04-28T20:05:50.347Z,100.00
2023-04-28T20:08:19.521Z,100.00
2023-04-28T20:10:47.835Z,100.00
2023-04-28T20:13:16.110Z,100.00
2023-04-28T20:15:45.272Z,100.00
2023-04-28T20:18:12.954Z,100.00
2023-04-28T20:20:40.924Z,100.00
2023-04-28T20:23:08.587Z,100.00
2023-04-28T20:25:37.480Z,100.00
2023-04-28T20:28:05.396Z,100.00
2023-04-28T20:30:33.172Z,100.00
2023-04-28T20:33:02.231Z,100.00
2023-04-28T20:35:32.143Z,100.00
2023-04-28T20:37:59.837Z,100.00
2023-04-28T20:40:27.848Z,100.00
2023-04-28T20:42:56.732Z,100.00
2023-04-28T20:45:24.899Z,100.00
2023-04-28T20:47:53.944Z,100.00
2023-04-28T20:50:24.265Z,100.00
2023-04-28T20:52:51.945Z,100.00
2023-04-28T20:55:19.703Z,100.00
2023-04-28T20:57:47.451Z,100.00
2023-04-28T21:00:16.055Z,100.00
2023-04-28T21:02:43.976Z,100.00
2023-04-28T21:05:11.915Z,100.00
2023-04-28T21:07:41.025Z,100.00
2023-04-28T21:10:10.544Z,100.00
2023-04-28T21:12:38.329Z,100.00
2023-04-28T21:15:07.172Z,100.00
2023-04-28T21:17:34.887Z,100.00
2023-04-28T21:20:03.599Z,100.00
2023-04-28T21:22:31.417Z,100.00
2023-04-28T21:25:00.671Z,100.00
2023-04-28T21:27:28.411Z,100.00
2023-04-28T21:29:56.204Z,100.00
2023-04-28T21:32:23.980Z,100.00
2023-04-28T21:34:51.681Z,100.00
2023-04-28T21:37:53.228Z,100.00
2023-04-28T21:40:22.672Z,100.00
2023-04-28T21:42:51.015Z,100.00
2023-04-28T21:45:18.882Z,100.00
2023-04-28T21:47:46.697Z,100.00
2023-04-28T21:50:14.454Z,100.00
2023-04-28T21:52:42.238Z,100.00
2023-04-28T21:55:10.497Z,100.00
2023-04-28T21:57:39.557Z,100.00
2023-04-28T22:00:10.776Z,100.00
2023-04-28T22:02:39.058Z,100.00
2023-04-28T22:05:06.946Z,100.00
2023-04-28T22:07:34.768Z,100.00
2023-04-28T22:10:02.537Z,100.00
2023-04-28T22:12:30.218Z,100.00
2023-04-28T22:15:00.195Z,100.00
2023-04-28T22:17:27.952Z,100.00
2023-04-28T22:19:55.645Z,100.00
2023-04-28T22:22:23.347Z,97.75
2023-04-28T22:24:52.316Z,100.00
2023-04-28T22:27:20.057Z,100.00
2023-04-28T22:29:47.768Z,100.00
2023-04-28T22:32:17.007Z,100.00
2023-04-28T22:34:44.676Z,100.00
2023-04-28T22:37:12.485Z,100.00
2023-04-28T22:39:40.136Z,100.00
2023-04-28T22:42:08.441Z,99.96
2023-04-28T22:44:36.575Z,100.00
2023-04-28T22:47:05.013Z,100.00
2023-04-28T22:49:34.019Z,100.00
2023-04-28T22:52:01.709Z,100.00
2023-04-28T22:54:29.385Z,100.00
2023-04-28T22:56:57.059Z,100.00
2023-04-28T22:59:24.747Z,100.00
2023-04-28T23:01:53.352Z,100.00
2023-04-28T23:04:21.849Z,100.00
2023-04-28T23:06:51.174Z,100.00
2023-04-28T23:09:19.646Z,100.00
2023-04-28T23:11:47.326Z,100.00
2023-04-28T23:14:15.007Z,100.00
2023-04-28T23:16:43.150Z,100.00
2023-04-28T23:19:10.838Z,100.00
2023-04-28T23:21:38.574Z,100.00
2023-04-28T23:24:08.439Z,100.00
2023-04-28T23:26:36.798Z,100.00
2023-04-28T23:29:04.507Z,100.00
2023-04-28T23:31:32.391Z,100.00
2023-04-28T23:34:00.700Z,100.00
2023-04-28T23:36:28.348Z,100.00
2023-04-28T23:38:56.509Z,100.00
2023-04-28T23:41:26.101Z,100.00
2023-04-28T23:43:53.796Z,100.00
2023-04-28T23:46:21.542Z,100.00
2023-04-28T23:48:49.246Z,100.00
2023-04-28T23:51:16.903Z,100.00
2023-04-28T23:53:44.811Z,100.00
2023-04-28T23:56:29.089Z,100.00
2023-04-28T23:58:57.112Z,100.00
